Time;durP1;ratioP1;P1;durP2;ratioP2;P2;SDS_P1;SDS_P2;PMS_P1;PMS_P2;Temp;Humidity;BMP_temperature;BMP_pressure;BME280_temperature;BME280_humidity;BME280_pressure;Samples;Min_cycle;Max_cycle;Signal;HPM_P1;HPM_P2
2023/04/19 00:02:18;;;;;;;5.73;2.63;;;;;;;4.75;100.00;101962.03;5047272;28;20029;-72
2023/04/19 00:04:44;;;;;;;6.05;2.80;;;;;;;4.71;100.00;101947.31;5045355;28;20027;-72
2023/04/19 00:07:13;;;;;;;11.70;3.22;;;;;;;4.77;100.00;101957.50;5046020;28;20114;-72
2023/04/19 00:09:38;;;;;;;7.10;2.65;;;;;;;4.78;100.00;101946.00;5047097;28;20531;-72
2023/04/19 00:12:04;;;;;;;6.55;2.97;;;;;;;4.86;100.00;101957.78;5045666;28;20029;-72
2023/04/19 00:14:29;;;;;;;4.10;2.58;;;;;;;4.76;100.00;101882.56;5046905;28;20036;-72
2023/04/19 00:16:55;;;;;;;4.78;2.78;;;;;;;4.75;100.00;101887.94;5045361;28;20028;-72
2023/04/19 00:19:21;;;;;;;3.70;2.35;;;;;;;4.65;100.00;101877.94;5046204;28;20041;-72
2023/04/19 00:21:47;;;;;;;8.18;2.92;;;;;;;4.61;100.00;101910.84;5044942;28;20071;-71
2023/04/19 00:24:12;;;;;;;6.23;3.20;;;;;;;4.68;100.00;101910.44;5046093;22;20045;-77
2023/04/19 00:26:38;;;;;;;5.20;2.73;;;;;;;4.62;100.00;101914.34;5025141;28;20036;-77
2023/04/19 00:29:03;;;;;;;6.23;3.73;;;;;;;4.62;100.00;101928.41;5023806;28;20030;-77
2023/04/19 00:31:29;;;;;;;5.70;3.50;;;;;;;4.59;100.00;101933.06;5024109;28;20095;-76
2023/04/19 00:33:55;;;;;;;8.40;3.70;;;;;;;4.65;100.00;101938.78;5024333;28;20037;-75
2023/04/19 00:36:21;;;;;;;11.23;3.22;;;;;;;4.62;100.00;101917.81;5003152;28;20764;-76
2023/04/19 00:38:46;;;;;;;5.78;2.45;;;;;;;4.57;100.00;101906.69;5023272;28;20037;-73
2023/04/19 00:41:12;;;;;;;7.53;2.37;;;;;;;4.49;100.00;101900.16;5008314;28;20460;-75
2023/04/19 00:43:37;;;;;;;6.07;2.87;;;;;;;4.60;100.00;101932.09;5023496;28;20028;-77
2023/04/19 00:46:04;;;;;;;3.83;2.70;;;;;;;4.63;100.00;101852.53;5022488;28;20500;-75
2023/04/19 00:48:29;;;;;;;9.20;3.00;;;;;;;4.55;100.00;101816.00;5023447;28;20033;-75
2023/04/19 00:50:55;;;;;;;7.18;2.83;;;;;;;4.53;100.00;101823.19;5006407;28;20044;-76
2023/04/19 00:53:21;;;;;;;10.13;3.70;;;;;;;4.54;100.00;101800.22;5024407;28;20141;-76
2023/04/19 00:55:47;;;;;;;6.90;3.03;;;;;;;4.50;100.00;101751.13;5023044;28;20090;-73
2023/04/19 00:58:12;;;;;;;5.97;2.60;;;;;;;4.54;100.00;101745.56;5024594;28;20033;-74
2023/04/19 01:00:38;;;;;;;6.17;2.50;;;;;;;4.60;100.00;101696.69;5006636;28;20406;-74
2023/04/19 01:03:03;;;;;;;7.22;2.65;;;;;;;4.55;100.00;101662.59;5022749;28;20022;-76
2023/04/19 01:05:29;;;;;;;10.53;3.03;;;;;;;4.57;100.00;101634.25;5024417;28;20072;-76
2023/04/19 01:07:54;;;;;;;5.65;2.80;;;;;;;4.49;100.00;101618.03;5024271;28;20033;-77
2023/04/19 01:10:20;;;;;;;6.67;2.40;;;;;;;4.32;100.00;101576.84;5024092;28;20045;-74
2023/04/19 01:12:48;;;;;;;5.15;2.60;;;;;;;4.40;100.00;101605.44;5020003;28;20132;-76
2023/04/19 01:15:14;;;;;;;6.53;2.23;;;;;;;4.34;100.00;101608.50;5007570;28;20116;-76
2023/04/19 01:17:40;;;;;;;4.43;2.88;;;;;;;4.35;100.00;101657.75;5022577;28;20053;-75
2023/04/19 01:20:06;;;;;;;;;;;;;;;4.44;100.00;101667.75;5006505;28;20037;-76
2023/04/19 01:22:32;;;;;;;3.85;2.42;;;;;;;4.37;100.00;101648.78;5006659;28;19917;-76
2023/04/19 01:24:57;;;;;;;5.78;2.45;;;;;;;4.28;100.00;101685.53;5024102;28;20036;-76
2023/04/19 01:27:23;;;;;;;4.53;2.57;;;;;;;4.26;100.00;101753.53;5024720;28;20398;-77
2023/04/19 01:29:49;;;;;;;7.80;3.08;;;;;;;4.07;100.00;101814.63;5022228;28;20074;-76
2023/04/19 01:32:16;;;;;;;9.88;3.40;;;;;;;4.15;100.00;101918.09;5007742;28;20230;-76
2023/04/19 01:34:42;;;;;;;5.13;3.25;;;;;;;4.08;100.00;101983.69;5005689;28;20040;-72
2023/04/19 01:37:07;;;;;;;7.35;3.80;;;;;;;4.06;100.00;102064.00;5006500;28;20033;-75
2023/04/19 01:39:33;;;;;;;9.27;3.65;;;;;;;3.98;100.00;102111.97;5022730;28;20405;-75
2023/04/19 01:42:00;;;;;;;12.13;4.20;;;;;;;3.93;100.00;102166.88;5022072;28;20478;-75
2023/04/19 01:44:25;;;;;;;11.07;3.83;;;;;;;4.06;100.00;102247.22;5022714;28;20044;-76
2023/04/19 01:46:51;;;;;;;9.50;3.53;;;;;;;3.96;100.00;102272.44;5023518;28;20074;-73
2023/04/19 01:49:17;;;;;;;9.73;3.87;;;;;;;3.93;100.00;102304.28;5023039;28;20091;-76
2023/04/19 01:51:42;;;;;;;7.83;3.57;;;;;;;3.94;100.00;102333.28;5005241;28;20044;-75
2023/04/19 01:54:08;;;;;;;7.20;3.03;;;;;;;3.91;100.00;102337.88;5006613;28;20021;-75
2023/04/19 01:56:33;;;;;;;7.23;3.40;;;;;;;3.93;100.00;102365.06;5022097;28;20034;-77
2023/04/19 01:59:00;;;;;;;10.43;3.83;;;;;;;3.89;100.00;102376.75;5005458;28;20495;-76
2023/04/19 02:01:25;;;;;;;8.73;3.55;;;;;;;3.88;100.00;102396.16;5022449;28;20107;-73
2023/04/19 02:03:51;;;;;;;9.23;4.20;;;;;;;3.83;100.00;102398.19;5022635;28;20045;-75
2023/04/19 02:06:16;;;;;;;7.40;3.80;;;;;;;3.89;100.00;102422.53;5023327;28;20221;-73
2023/04/19 02:08:41;;;;;;;5.77;3.63;;;;;;;3.85;100.00;102428.03;5021778;28;20037;-72
2023/04/19 02:11:13;;;;;;;9.70;3.63;;;;;;;3.81;100.00;102432.63;5038824;28;20115;-73
2023/04/19 02:13:41;;;;;;;10.30;3.83;;;;;;;3.71;100.00;102416.38;5021698;28;20845;-74
2023/04/19 02:16:08;;;;;;;8.23;4.47;;;;;;;3.63;100.00;102428.25;5022478;28;20074;-74
2023/04/19 02:18:42;;;;;;;9.20;3.65;;;;;;;3.53;100.00;102430.50;5018344;28;20495;-76
2023/04/19 02:21:08;;;;;;;10.70;4.70;;;;;;;3.47;100.00;102439.59;5022019;28;20459;-77
2023/04/19 02:23:34;;;;;;;;;;;;;;;3.46;100.00;102466.91;5022367;28;20017;-76
2023/04/19 02:26:01;;;;;;;6.82;3.33;;;;;;;3.33;100.00;102464.00;5021471;28;19917;-75
2023/04/19 02:28:28;;;;;;;8.02;4.40;;;;;;;3.26;100.00;102477.59;5007055;28;20041;-74
2023/04/19 02:30:54;;;;;;;7.57;3.65;;;;;;;3.16;100.00;102474.50;5008856;28;20029;-76
2023/04/19 02:33:21;;;;;;;6.18;3.70;;;;;;;3.15;100.00;102486.84;5009928;28;20036;-76
2023/04/19 02:35:46;;;;;;;7.47;3.70;;;;;;;2.97;100.00;102456.03;5025783;28;20139;-72
2023/04/19 02:38:12;;;;;;;7.10;3.77;;;;;;;2.94;100.00;102459.69;5027475;28;20417;-75
2023/04/19 02:40:37;;;;;;;7.53;3.83;;;;;;;2.84;100.00;102458.41;5010029;28;20287;-76
2023/04/19 02:43:03;;;;;;;11.23;4.23;;;;;;;2.77;100.00;102464.88;5009908;28;20089;-77
2023/04/19 02:45:28;;;;;;;7.80;4.25;;;;;;;2.75;100.00;102466.72;5025947;28;20029;-76
2023/04/19 02:47:54;;;;;;;10.00;4.43;;;;;;;2.70;100.00;102474.00;5025695;28;20038;-77
2023/04/19 02:50:19;;;;;;;6.45;4.18;;;;;;;2.66;100.00;102480.34;5009885;28;20269;-76
2023/04/19 02:52:48;;;;;;;13.73;5.85;;;;;;;2.68;100.00;102470.56;5027376;28;20120;-76
2023/04/19 02:55:13;;;;;;;11.67;4.57;;;;;;;2.56;100.00;102477.25;5011313;28;20518;-77
2023/04/19 02:57:39;;;;;;;9.20;3.83;;;;;;;2.57;100.00;102493.94;5027197;28;20299;-76
2023/04/19 03:00:09;;;;;;;9.20;4.50;;;;;;;2.56;100.00;102486.97;5044082;28;20065;-75
2023/04/19 03:02:36;;;;;;;10.93;3.85;;;;;;;2.61;100.00;102500.78;5027240;28;20475;-75
2023/04/19 03:05:03;;;;;;;10.13;4.78;;;;;;;2.61;100.00;102485.81;5025012;28;20052;-76
2023/04/19 03:07:28;;;;;;;7.88;4.20;;;;;;;2.75;100.00;102495.75;5027489;28;20605;-76
2023/04/19 03:09:54;;;;;;;7.70;4.05;;;;;;;2.86;100.00;102521.66;5027149;28;20132;-73
2023/04/19 03:12:19;;;;;;;8.93;3.47;;;;;;;3.08;100.00;102521.53;5027250;28;20398;-76
2023/04/19 03:14:44;;;;;;;5.93;3.53;;;;;;;3.15;100.00;102507.13;5026833;28;20039;-77
2023/04/19 03:17:10;;;;;;;5.88;3.42;;;;;;;3.30;100.00;102522.25;5027148;28;20721;-76
2023/04/19 03:19:36;;;;;;;6.45;3.60;;;;;;;3.41;100.00;102503.25;5026604;28;20106;-74
2023/04/19 03:22:01;;;;;;;5.33;2.83;;;;;;;3.46;100.00;102479.25;5027269;28;20410;-74
2023/04/19 03:24:29;;;;;;;6.55;3.35;;;;;;;3.52;100.00;102452.56;5026918;28;20355;-75
2023/04/19 03:26:57;;;;;;;6.20;3.55;;;;;;;3.47;100.00;102422.91;5011026;28;20041;-75
2023/04/19 03:29:26;;;;;;;6.60;2.92;;;;;;;3.47;100.00;102399.13;5026935;28;20013;-77
2023/04/19 03:31:58;;;;;;;4.72;2.85;;;;;;;3.61;100.00;102378.16;5011400;28;20038;-74
2023/04/19 03:34:23;;;;;;;4.83;2.67;;;;;;;3.61;100.00;102348.25;5026862;28;20100;-76
2023/04/19 03:36:48;;;;;;;7.07;3.30;;;;;;;3.66;100.00;102333.88;5027079;28;20059;-76
2023/04/19 03:39:14;;;;;;;5.47;2.53;;;;;;;3.65;100.00;102321.59;5027794;28;20028;-72
2023/04/19 03:41:42;;;;;;;4.43;2.50;;;;;;;3.67;100.00;102317.06;5010021;28;20037;-75
2023/04/19 03:44:15;;;;;;;6.32;2.63;;;;;;;3.76;100.00;102307.84;5042320;28;20067;-76
2023/04/19 03:46:45;;;;;;;10.60;2.53;;;;;;;3.79;100.00;102281.25;5009482;28;20032;-74
2023/04/19 03:49:10;;;;;;;6.72;2.45;;;;;;;3.86;100.00;102281.78;5026542;28;20041;-76
2023/04/19 03:51:37;;;;;;;5.18;2.85;;;;;;;3.82;100.00;102283.75;5026396;28;20103;-76
2023/04/19 03:54:02;;;;;;;4.47;2.63;;;;;;;3.75;100.00;102269.16;5025669;28;20494;-73
2023/04/19 03:56:28;;;;;;;5.93;2.13;;;;;;;3.68;100.00;102275.69;5026516;28;20418;-74
2023/04/19 03:58:54;;;;;;;7.33;2.60;;;;;;;3.74;100.00;102294.69;5009242;28;20044;-75
2023/04/19 04:01:21;;;;;;;7.55;2.53;;;;;;;3.86;100.00;102324.91;5026459;28;20029;-75
2023/04/19 04:03:47;;;;;;;5.93;2.80;;;;;;;3.78;100.00;102317.38;5026010;28;20033;-74
2023/04/19 04:06:12;;;;;;;7.50;2.67;;;;;;;3.89;100.00;102350.34;5026565;28;20489;-75
2023/04/19 04:08:38;;;;;;;6.93;2.63;;;;;;;3.92;100.00;102350.16;5026475;28;20284;-75
2023/04/19 04:11:03;;;;;;;3.40;2.10;;;;;;;3.85;100.00;102351.41;5026215;28;20753;-76
2023/04/19 04:13:29;;;;;;;4.50;2.58;;;;;;;3.81;100.00;102364.78;5026135;28;20049;-75
2023/04/19 04:16:14;;;;;;;6.82;2.72;;;;;;;3.81;100.00;102379.78;5006353;28;20108;-74
2023/04/19 04:18:40;;;;;;;6.50;3.28;;;;;;;3.80;100.00;102378.94;5028029;28;20121;-74
2023/04/19 04:21:09;;;;;;;4.78;2.30;;;;;;;3.77;100.00;102380.88;5028449;28;20033;-74
2023/04/19 04:23:37;;;;;;;6.35;2.90;;;;;;;3.87;100.00;102405.91;5011806;28;20099;-74
2023/04/19 04:26:08;;;;;;;6.45;2.47;;;;;;;3.91;100.00;102412.75;5027097;28;20167;-74
2023/04/19 04:28:53;;;;;;;3.53;2.22;;;;;;;3.86;100.00;102401.53;5012542;28;20393;-73
2023/04/19 04:31:19;;;;;;;8.77;2.78;;;;;;;3.91;100.00;102402.16;5025927;28;20029;-74
2023/04/19 04:33:45;;;;;;;8.27;2.30;;;;;;;3.94;100.00;102393.22;5009073;28;20022;-74
2023/04/19 04:36:12;;;;;;;;;;;;;;;4.02;100.00;102391.03;5026299;28;20529;-74
2023/04/19 04:38:38;;;;;;;5.20;2.15;;;;;;;4.13;100.00;102356.13;5025425;28;20405;-74
2023/04/19 04:41:04;;;;;;;4.32;2.28;;;;;;;4.16;100.00;102279.28;5025315;28;20065;-73
2023/04/19 04:43:31;;;;;;;2.47;1.40;;;;;;;4.23;100.00;102239.19;5025586;28;20025;-74
2023/04/19 04:45:56;;;;;;;;;;;;;;;4.35;100.00;102157.50;5025794;28;20058;-73
2023/04/19 04:48:23;;;;;;;5.07;1.70;;;;;;;4.31;100.00;102103.94;5025485;28;19978;-74
2023/04/19 04:50:48;;;;;;;2.13;1.30;;;;;;;4.31;100.00;102068.69;5026458;28;20029;-74
2023/04/19 04:53:14;;;;;;;5.50;1.92;;;;;;;4.33;100.00;102029.81;5024422;28;20478;-74
2023/04/19 04:55:41;;;;;;;1.85;1.48;;;;;;;4.41;100.00;102020.47;5025705;28;20025;-73
2023/04/19 04:58:07;;;;;;;2.07;1.63;;;;;;;4.52;100.00;102016.34;5025290;28;20036;-74
2023/04/19 05:00:51;;;;;;;4.05;1.60;;;;;;;4.64;100.00;101955.63;5024957;28;20278;-73
2023/04/19 05:03:16;;;;;;;3.92;1.40;;;;;;;4.68;100.00;101934.25;5025147;28;20037;-73
2023/04/19 05:05:47;;;;;;;4.70;1.80;;;;;;;4.72;100.00;101901.38;5009751;28;20045;-74
2023/04/19 05:08:13;;;;;;;4.30;1.50;;;;;;;4.81;100.00;101891.06;5025160;28;20033;-73
2023/04/19 05:10:38;;;;;;;4.35;1.50;;;;;;;4.85;100.00;101863.47;5024768;28;20028;-74
2023/04/19 05:13:04;;;;;;;4.43;1.57;;;;;;;4.85;100.00;101847.59;5024520;28;20034;-73
2023/04/19 05:15:30;;;;;;;2.63;2.00;;;;;;;4.96;100.00;101851.34;5008751;28;20102;-73
2023/04/19 05:17:56;;;;;;;3.00;1.10;;;;;;;5.07;100.00;101854.13;5024938;28;20137;-74
2023/04/19 05:20:21;;;;;;;5.50;2.43;;;;;;;5.15;100.00;101832.44;5041625;28;20037;-73
2023/04/19 05:22:57;;;;;;;2.03;1.38;;;;;;;5.27;100.00;101813.13;5011004;28;20029;-73
2023/04/19 05:25:22;;;;;;;6.07;1.90;;;;;;;5.33;100.00;101831.25;5018933;28;20029;-74
2023/04/19 05:27:48;;;;;;;3.38;1.48;;;;;;;5.93;100.00;101922.63;5024656;28;20030;-74
2023/04/19 05:30:14;;;;;;;2.47;1.40;;;;;;;7.52;100.00;101931.75;5024959;28;20089;-74
2023/04/19 05:32:42;;;;;;;3.83;1.92;;;;;;;8.72;100.00;101613.75;5005038;28;20036;-74
2023/04/19 05:35:10;;;;;;;3.63;1.42;;;;;;;9.45;100.00;101270.75;5016949;28;20025;-74
2023/04/19 05:37:37;;;;;;;3.25;1.10;;;;;;;9.13;100.00;100860.88;5024677;28;20209;-74
2023/04/19 05:40:04;;;;;;;5.35;2.17;;;;;;;7.91;100.00;100677.47;5024339;28;20043;-74
2023/04/19 05:42:30;;;;;;;3.15;1.35;;;;;;;7.70;100.00;100844.28;5024623;28;20032;-75
2023/04/19 05:44:58;;;;;;;5.72;1.10;;;;;;;7.92;100.00;101026.56;5024296;28;20894;-75
2023/04/19 05:47:24;;;;;;;4.07;1.00;;;;;;;8.98;100.00;101017.66;5008479;28;20037;-74
2023/04/19 05:50:13;;;;;;;1.63;1.02;;;;;;;9.70;96.35;100768.09;5024649;28;20069;-74
2023/04/19 05:52:46;;;;;;;2.25;1.23;;;;;;;10.60;92.81;100694.81;5008678;28;20140;-74
2023/04/19 05:55:12;;;;;;;4.00;1.48;;;;;;;10.65;89.82;100529.63;5025108;28;20743;-74
2023/04/19 05:57:41;;;;;;;2.45;1.10;;;;;;;11.42;87.38;100548.66;5008746;28;20036;-74
2023/04/19 06:00:08;;;;;;;4.13;1.50;;;;;;;11.51;83.76;100261.56;5024497;28;20033;-75
2023/04/19 06:02:43;;;;;;;2.88;1.50;;;;;;;11.58;82.58;100288.41;5008500;28;20295;-74
2023/04/19 06:05:11;;;;;;;2.05;1.15;;;;;;;11.46;80.89;100145.50;5023287;28;20060;-74
2023/04/19 06:07:36;;;;;;;2.00;1.15;;;;;;;11.75;78.79;100117.94;5025123;28;20021;-76
2023/04/19 06:10:03;;;;;;;1.30;0.95;;;;;;;12.38;77.53;100163.81;5025519;28;20044;-76
2023/04/19 06:12:29;;;;;;;3.38;1.30;;;;;;;12.70;76.58;100201.88;5025674;28;20033;-76
2023/04/19 06:14:55;;;;;;;3.03;1.50;;;;;;;12.62;73.77;99969.84;5025788;28;20049;-74
2023/04/19 06:17:23;;;;;;;2.45;1.17;;;;;;;12.74;72.37;99913.91;5025973;28;20140;-79
2023/04/19 06:19:50;;;;;;;2.33;1.50;;;;;;;12.67;70.50;99754.00;5008796;28;20041;-75
2023/04/19 06:22:15;;;;;;;;;;;;;;;12.41;70.19;99730.63;5026488;28;20055;-75
2023/04/19 06:24:40;;;;;;;18.33;1.40;;;;;;;12.55;70.24;99803.81;5026657;28;19979;-74
2023/04/19 06:27:06;;;;;;;3.57;1.17;;;;;;;12.67;69.01;99748.66;5031692;23;20065;-70
2023/04/19 06:29:31;;;;;;;3.53;1.30;;;;;;;12.50;68.85;99703.66;5023500;28;20033;-71
2023/04/19 06:31:56;;;;;;;3.43;1.40;;;;;;;12.81;68.28;99810.31;5022751;28;20410;-72
2023/04/19 06:34:22;;;;;;;1.30;1.17;;;;;;;12.84;68.35;99845.53;5022141;28;20454;-73
2023/04/19 06:36:47;;;;;;;3.60;1.33;;;;;;;12.89;67.63;99821.66;5023584;28;20400;-74
2023/04/19 06:39:13;;;;;;;2.33;1.50;;;;;;;12.91;67.21;99749.13;5022625;28;20112;-74
2023/04/19 06:41:39;;;;;;;2.72;1.50;;;;;;;12.73;67.28;99823.84;5023318;28;20043;-72
2023/04/19 06:44:04;;;;;;;4.27;1.60;;;;;;;12.43;66.84;99736.63;5021623;28;20029;-73
2023/04/19 06:46:30;;;;;;;5.27;1.60;;;;;;;12.58;66.90;99827.50;5005966;28;20040;-72
2023/04/19 06:48:55;;;;;;;3.27;1.70;;;;;;;12.58;67.06;99877.53;5021601;28;20045;-73
2023/04/19 06:51:20;;;;;;;4.63;2.10;;;;;;;12.64;66.87;99856.16;5022126;28;20041;-73
2023/04/19 06:53:46;;;;;;;5.10;2.00;;;;;;;12.37;66.68;99819.56;5004826;28;20128;-71
2023/04/19 06:56:12;;;;;;;4.77;2.10;;;;;;;12.54;67.37;99973.47;5023350;28;20034;-71
2023/04/19 06:58:37;;;;;;;4.75;1.50;;;;;;;12.33;66.97;99858.44;5021672;28;20124;-74
2023/04/19 07:01:03;;;;;;;2.37;1.40;;;;;;;12.43;67.48;100040.94;5022940;28;20191;-74
2023/04/19 07:03:29;;;;;;;3.65;2.00;;;;;;;12.51;66.55;99941.75;5023052;28;20076;-73
2023/04/19 07:05:55;;;;;;;2.93;1.67;;;;;;;12.00;66.52;99819.69;5022487;28;20037;-73
2023/04/19 07:08:21;;;;;;;2.55;1.55;;;;;;;12.08;66.73;99892.81;5022924;28;20032;-74
2023/04/19 07:10:47;;;;;;;3.78;1.67;;;;;;;12.54;66.77;100088.63;5021352;28;20037;-74
2023/04/19 07:13:12;;;;;;;3.23;1.60;;;;;;;12.65;66.14;100007.78;5023008;28;20041;-74
2023/04/19 07:15:38;;;;;;;2.07;1.30;;;;;;;12.56;66.18;99998.22;5023063;28;20041;-73
2023/04/19 07:18:03;;;;;;;3.93;1.60;;;;;;;12.35;65.97;99926.81;5024737;28;20033;-74
2023/04/19 07:20:30;;;;;;;2.70;1.50;;;;;;;12.54;66.18;100075.22;5009574;28;20431;-73
2023/04/19 07:22:59;;;;;;;7.90;1.65;;;;;;;12.94;64.87;100015.81;5024790;28;20033;-74
2023/04/19 07:25:25;;;;;;;5.00;1.65;;;;;;;12.66;64.41;99811.25;5022374;28;20029;-74
2023/04/19 07:27:54;;;;;;;4.10;1.90;;;;;;;13.18;65.54;100152.06;5008956;28;20040;-74
2023/04/19 07:30:22;;;;;;;5.85;1.55;;;;;;;13.52;66.15;100324.78;5026769;28;20083;-73
2023/04/19 07:32:50;;;;;;;3.58;1.80;;;;;;;13.29;63.22;99848.59;5009222;28;20013;-74
2023/04/19 07:35:18;;;;;;;2.40;1.15;;;;;;;13.06;62.69;99727.50;5023490;28;20072;-73
2023/04/19 07:37:44;;;;;;;5.67;1.77;;;;;;;13.04;63.04;99772.44;5025019;28;20069;-74
2023/04/19 07:40:10;;;;;;;3.77;1.50;;;;;;;13.05;61.84;99642.81;5026231;28;20488;-74
2023/04/19 07:42:35;;;;;;;2.35;1.33;;;;;;;13.09;61.75;99655.59;5025728;28;20060;-74
2023/04/19 07:45:01;;;;;;;2.10;1.40;;;;;;;13.13;61.50;99645.28;5007090;28;20534;-71
2023/04/19 07:47:26;;;;;;;1.60;0.90;;;;;;;13.38;61.72;99771.50;5024787;28;20292;-71
2023/04/19 07:49:52;;;;;;;4.80;1.63;;;;;;;13.43;61.37;99771.72;5025297;28;20048;-73
2023/04/19 07:52:17;;;;;;;4.10;1.10;;;;;;;13.10;60.93;99592.09;5024189;28;20533;-74
2023/04/19 07:54:43;;;;;;;1.07;0.80;;;;;;;12.89;61.38;99585.09;5024416;28;20112;-74
2023/04/19 07:57:08;;;;;;;1.53;1.20;;;;;;;13.26;61.12;99740.97;5026270;28;20075;-74
2023/04/19 07:59:33;;;;;;;1.37;1.10;;;;;;;12.83;62.02;99768.91;5025189;28;20029;-74
2023/04/19 08:01:59;;;;;;;1.93;1.23;;;;;;;13.35;61.21;99847.00;5024219;28;20620;-74
2023/04/19 08:04:25;;;;;;;2.88;1.30;;;;;;;14.05;60.96;100034.53;5025940;28;20033;-74
2023/04/19 08:06:51;;;;;;;3.17;1.10;;;;;;;13.57;58.91;99515.13;5024022;28;20142;-72
2023/04/19 08:09:17;;;;;;;3.40;1.23;;;;;;;13.53;58.62;99465.63;5024122;28;20124;-74
2023/04/19 08:11:42;;;;;;;1.67;0.83;;;;;;;13.81;58.13;99521.63;5025457;28;20509;-72
2023/04/19 08:14:07;;;;;;;2.60;0.70;;;;;;;13.70;57.39;99337.25;5024183;28;20091;-74
2023/04/19 08:16:33;;;;;;;2.10;1.03;;;;;;;13.89;56.82;99349.69;5024972;28;20573;-73
2023/04/19 08:18:58;;;;;;;2.63;1.03;;;;;;;13.65;56.42;99160.91;5023442;28;20695;-74
2023/04/19 08:21:23;;;;;;;1.43;1.10;;;;;;;13.89;57.10;99419.44;5024866;28;20272;-74
2023/04/19 08:23:49;;;;;;;3.17;1.30;;;;;;;14.11;57.23;99521.88;5024358;28;20037;-73
2023/04/19 08:26:14;;;;;;;2.90;1.10;;;;;;;14.55;56.73;99681.31;5008760;28;20033;-75
2023/04/19 08:28:39;;;;;;;1.70;1.17;;;;;;;14.61;56.11;99588.34;5025499;28;20413;-74
2023/04/19 08:31:09;;;;;;;1.43;1.03;;;;;;;14.86;55.87;99587.53;5023644;28;20021;-74
2023/04/19 08:33:34;;;;;;;2.15;0.98;;;;;;;15.30;55.29;99658.31;5023955;28;20084;-74
2023/04/19 08:36:00;;;;;;;4.30;1.45;;;;;;;14.79;55.31;99404.88;5024843;28;20038;-74
2023/04/19 08:38:25;;;;;;;3.47;1.10;;;;;;;14.98;55.32;99546.28;5022564;28;20128;-74
2023/04/19 08:40:52;;;;;;;2.60;1.20;;;;;;;14.94;54.34;99331.97;5024117;28;20041;-74
2023/04/19 08:43:18;;;;;;;2.35;1.25;;;;;;;14.80;54.15;99287.47;5024801;28;20028;-73
2023/04/19 08:45:46;;;;;;;3.72;1.15;;;;;;;14.62;54.30;99227.38;5008393;28;20422;-73
2023/04/19 08:48:14;;;;;;;1.77;1.13;;;;;;;14.89;54.95;99507.31;5024046;28;20033;-74
2023/04/19 08:50:47;;;;;;;2.55;1.10;;;;;;;15.53;53.71;99550.09;5023119;28;20044;-74
2023/04/19 08:53:13;;;;;;;4.43;1.17;;;;;;;15.48;53.37;99478.13;5007851;28;20124;-74
2023/04/19 08:55:40;;;;;;;5.32;1.95;;;;;;;15.15;52.91;99196.28;5024496;28;20104;-74
2023/04/19 08:58:05;;;;;;;5.00;2.22;;;;;;;15.56;53.27;99456.31;5024791;28;20036;-72
2023/04/19 09:00:33;;;;;;;4.43;1.10;;;;;;;15.44;52.55;99269.84;5025850;28;20033;-72
2023/04/19 09:02:58;;;;;;;1.88;1.20;;;;;;;15.58;52.59;99368.13;5024210;28;20029;-75
2023/04/19 09:05:24;;;;;;;4.27;1.40;;;;;;;15.42;51.62;99159.00;5023801;28;20029;-74
2023/04/19 09:07:49;;;;;;;4.07;1.45;;;;;;;15.46;52.40;99305.41;5023227;28;20280;-75
2023/04/19 09:10:17;;;;;;;1.42;1.23;;;;;;;15.79;51.29;99306.81;5024470;28;20041;-74
2023/04/19 09:12:59;;;;;;;2.00;1.33;;;;;;;16.13;50.59;99228.97;5024289;28;20128;-74
2023/04/19 09:15:38;;;;;;;2.92;1.50;;;;;;;15.78;50.47;99117.63;5013897;28;20115;-75
2023/04/19 09:18:05;;;;;;;2.88;1.42;;;;;;;15.48;50.39;98937.56;5023341;28;20422;-73
2023/04/19 09:20:42;;;;;;;3.40;1.73;;;;;;;15.81;51.11;99280.50;5023790;28;20039;-70
2023/04/19 09:23:13;;;;;;;3.08;1.30;;;;;;;16.44;51.37;99554.53;5038633;28;20554;-74
2023/04/19 09:25:39;;;;;;;3.40;1.38;;;;;;;16.19;50.45;99219.97;5017837;28;20040;-73
2023/04/19 09:28:12;;;;;;;7.20;1.63;;;;;;;16.45;49.70;99272.50;5023392;28;20060;-74
2023/04/19 09:30:38;;;;;;;3.33;1.80;;;;;;;16.37;49.60;99138.22;5021470;28;20665;-74
2023/04/19 09:33:04;;;;;;;4.82;1.50;;;;;;;16.70;48.93;99188.69;5023403;28;20525;-73
2023/04/19 09:35:40;;;;;;;3.83;1.77;;;;;;;16.45;48.02;98957.38;5023465;28;20037;-74
2023/04/19 09:38:05;;;;;;;5.82;1.60;;;;;;;15.97;48.51;98848.34;5023791;28;20111;-74
2023/04/19 09:40:30;;;;;;;3.30;1.77;;;;;;;16.42;49.79;99306.13;5023327;28;20695;-74
2023/04/19 09:42:56;;;;;;;2.33;1.60;;;;;;;16.23;48.64;99029.97;5024037;28;20037;-71
2023/04/19 09:45:21;;;;;;;4.40;1.80;;;;;;;16.84;49.03;99327.53;5023793;28;20025;-74
2023/04/19 09:48:00;;;;;;;5.30;1.50;;;;;;;16.46;48.90;99112.53;5021471;28;20689;-75
2023/04/19 09:50:29;;;;;;;5.93;1.83;;;;;;;16.99;49.22;99388.19;5019494;28;20047;-71
2023/04/19 09:52:54;;;;;;;5.80;1.85;;;;;;;16.91;47.82;99157.56;5023137;28;20041;-75
2023/04/19 09:55:21;;;;;;;4.65;1.73;;;;;;;16.86;47.76;99044.28;5023866;28;20041;-74
2023/04/19 09:57:47;;;;;;;2.63;1.80;;;;;;;17.12;48.19;99269.28;5023520;28;20078;-75
2023/04/19 10:00:14;;;;;;;7.60;2.27;;;;;;;16.94;47.98;99099.66;5023487;28;20045;-74
2023/04/19 10:02:40;;;;;;;3.72;2.15;;;;;;;16.87;46.87;98922.75;5007321;28;20059;-74
2023/04/19 10:05:08;;;;;;;4.40;2.17;;;;;;;16.57;46.64;98686.00;5023989;28;20037;-70
2023/04/19 10:07:34;;;;;;;4.13;2.03;;;;;;;17.16;46.13;98957.66;5023959;28;20056;-75
2023/04/19 10:10:01;;;;;;;4.20;2.53;;;;;;;16.99;46.46;98879.50;5022625;28;20053;-75
2023/04/19 10:12:26;;;;;;;3.45;2.03;;;;;;;17.16;46.46;98965.75;5024032;28;20025;-72
2023/04/19 10:14:54;;;;;;;4.20;1.87;;;;;;;17.50;46.19;99084.34;5023433;28;20048;-74
2023/04/19 10:17:21;;;;;;;5.38;2.08;;;;;;;17.26;46.81;99108.81;5023504;28;20546;-75
2023/04/19 10:19:50;;;;;;;3.22;2.00;;;;;;;17.56;46.23;99102.25;5022695;28;20429;-73
2023/04/19 10:22:16;;;;;;;2.63;1.95;;;;;;;17.79;45.61;99073.38;5023466;28;20540;-72
2023/04/19 10:25:14;;;;;;;3.07;2.57;;;;;;;17.70;45.86;99108.91;5023716;28;20029;-75
2023/04/19 10:27:45;;;;;;;4.03;2.40;;;;;;;17.72;45.95;99039.31;4999554;28;20030;-74
2023/04/19 10:30:19;;;;;;;4.35;2.30;;;;;;;17.56;46.05;99020.47;5023884;28;20057;-72
2023/04/19 10:32:50;;;;;;;6.28;2.47;;;;;;;18.35;44.40;99110.03;5022418;28;20033;-75
2023/04/19 10:35:18;;;;;;;6.45;2.22;;;;;;;18.63;42.92;98902.72;5023486;28;20883;-71
2023/04/19 10:38:12;;;;;;;3.47;2.10;;;;;;;17.91;42.26;98329.06;5022984;28;20500;-75
2023/04/19 10:40:50;;;;;;;3.47;2.35;;;;;;;17.91;43.00;98574.69;5020205;28;20033;-75
2023/04/19 10:43:18;;;;;;;5.07;2.15;;;;;;;18.03;43.44;98706.78;5017083;28;20029;-71
2023/04/19 10:45:45;;;;;;;5.38;2.35;;;;;;;18.48;42.72;98773.75;5023332;28;20041;-74
2023/04/19 10:48:29;;;;;;;3.28;2.50;;;;;;;16.74;41.44;97499.75;5023016;28;20021;-74
2023/04/19 10:51:01;;;;;;;6.78;2.38;;;;;;;16.95;42.81;98109.41;5028078;28;20490;-74
2023/04/19 10:53:43;;;;;;;3.10;1.90;;;;;;;17.33;44.16;98658.22;5021617;28;20033;-74
2023/04/19 10:56:08;;;;;;;4.35;1.95;;;;;;;18.47;43.09;98965.84;5035320;28;20486;-74
2023/04/19 10:58:58;;;;;;;3.40;2.30;;;;;;;17.26;42.47;98154.19;5027325;28;20032;-73
2023/04/19 11:01:39;;;;;;;2.83;2.15;;;;;;;17.41;43.25;98485.13;5034648;28;20467;-74
2023/04/19 11:04:12;;;;;;;4.45;2.60;;;;;;;17.52;43.37;98476.00;5026733;28;20475;-74
2023/04/19 11:06:56;;;;;;;4.35;1.90;;;;;;;17.63;42.90;98467.94;5027245;28;20124;-75
2023/04/19 11:09:33;;;;;;;7.40;2.53;;;;;;;18.03;41.38;98367.41;5023332;28;20720;-73
2023/04/19 11:12:00;;;;;;;4.70;2.00;;;;;;;18.09;41.93;98492.41;5040483;28;20037;-73
2023/04/19 11:14:26;;;;;;;6.50;2.30;;;;;;;17.51;41.69;98168.75;5025952;28;20100;-74
2023/04/19 11:16:51;;;;;;;4.40;2.38;;;;;;;17.75;41.27;98181.69;5026777;28;20053;-73
2023/04/19 11:19:18;;;;;;;5.00;2.20;;;;;;;17.78;42.14;98380.84;5027391;28;20037;-73
2023/04/19 11:21:47;;;;;;;3.72;1.95;;;;;;;16.18;41.99;97627.44;5025527;28;20550;-73
2023/04/19 11:24:17;;;;;;;5.13;1.98;;;;;;;15.50;41.78;97311.41;5027539;28;20112;-73
2023/04/19 11:26:43;;;;;;;4.63;2.08;;;;;;;16.41;42.70;98068.38;5025526;28;20041;-73
2023/04/19 11:29:09;;;;;;;4.53;2.05;;;;;;;16.65;41.25;97877.44;5026435;28;20517;-74
2023/04/19 11:31:35;;;;;;;6.50;2.05;;;;;;;15.49;41.23;97312.47;5027197;28;20393;-74